createdAt,value
2022-12-08T00:01:51.854Z,4.93
2022-12-08T00:04:19.891Z,5.18
2022-12-08T00:07:05.961Z,5.24
2022-12-08T00:09:38.957Z,5.28
2022-12-08T00:12:12.909Z,5.35
2022-12-08T00:14:42.941Z,5.36
2022-12-08T00:17:12.660Z,5.43
2022-12-08T00:19:41.283Z,5.56
2022-12-08T00:22:10.441Z,5.66
2022-12-08T00:24:39.947Z,5.68
2022-12-08T00:27:09.759Z,5.71
2022-12-08T00:29:38.533Z,5.46
2022-12-08T00:32:06.797Z,4.51
2022-12-08T00:34:34.942Z,3.64
2022-12-08T00:37:02.713Z,2.99
2022-12-08T00:39:30.397Z,2.49
2022-12-08T00:42:13.213Z,2.10
2022-12-08T00:44:42.566Z,2.32
2022-12-08T00:47:11.566Z,3.32
2022-12-08T00:49:39.309Z,3.87
2022-12-08T00:52:07.012Z,4.13
2022-12-08T00:54:34.778Z,4.33
2022-12-08T00:57:02.474Z,4.47
2022-12-08T00:59:30.140Z,4.56
2022-12-08T01:01:57.843Z,4.61
2022-12-08T01:04:25.868Z,4.66
2022-12-08T01:06:53.631Z,4.72
2022-12-08T01:09:21.434Z,4.73
2022-12-08T01:11:49.190Z,4.62
2022-12-08T01:14:17.032Z,4.62
2022-12-08T01:16:45.104Z,4.95
2022-12-08T01:19:14.924Z,5.06
2022-12-08T01:21:44.712Z,5.14
2022-12-08T01:24:13.554Z,5.15
2022-12-08T01:26:41.361Z,5.08
2022-12-08T01:29:10.391Z,5.02
2022-12-08T01:31:38.779Z,4.86
2022-12-08T01:34:08.418Z,4.68
2022-12-08T01:36:39.631Z,4.48
2022-12-08T01:39:12.716Z,4.61
2022-12-08T01:41:40.405Z,4.84
2022-12-08T01:44:11.532Z,5.06
2022-12-08T01:46:44.228Z,4.92
2022-12-08T01:49:31.058Z,4.12
2022-12-08T01:52:00.696Z,3.22
2022-12-08T01:54:33.734Z,2.60
2022-12-08T01:57:21.107Z,2.13
2022-12-08T01:59:56.479Z,1.73
2022-12-08T02:02:29.721Z,2.08
2022-12-08T02:04:57.545Z,3.56
2022-12-08T02:07:25.581Z,4.45
2022-12-08T02:09:54.229Z,4.69
2022-12-08T02:12:22.160Z,6.00
2022-12-08T02:14:49.944Z,7.47
2022-12-08T02:17:32.129Z,7.46
2022-12-08T02:20:37.939Z,5.82
2022-12-08T02:23:22.547Z,4.24
2022-12-08T02:26:09.247Z,3.29
2022-12-08T02:29:05.921Z,2.63
2022-12-08T02:31:55.576Z,2.07
2022-12-08T02:34:26.415Z,1.62
2022-12-08T02:37:02.928Z,1.27
2022-12-08T02:39:43.234Z,1.65
2022-12-08T02:42:21.027Z,3.45
2022-12-08T02:44:55.826Z,4.70
2022-12-08T02:47:26.312Z,5.18
2022-12-08T02:49:55.939Z,5.40
2022-12-08T02:52:23.563Z,5.97
2022-12-08T02:54:58.579Z,5.73
2022-12-08T02:57:47.802Z,4.48
2022-12-08T03:00:19.069Z,3.37
2022-12-08T03:03:14.454Z,2.66
2022-12-08T03:05:54.188Z,2.01
2022-12-08T03:08:32.917Z,1.57
2022-12-08T03:11:21.868Z,1.20
2022-12-08T03:13:52.695Z,1.41
2022-12-08T03:16:24.779Z,2.72
2022-12-08T03:19:06.914Z,3.26
2022-12-08T03:21:36.095Z,3.81
2022-12-08T03:24:07.447Z,4.26
2022-12-08T03:26:44.853Z,4.91
2022-12-08T03:29:13.327Z,5.42
2022-12-08T03:31:48.112Z,5.37
2022-12-08T03:34:17.680Z,4.60
2022-12-08T03:36:45.902Z,3.58
2022-12-08T03:39:14.577Z,2.79
2022-12-08T03:41:42.243Z,2.17
2022-12-08T03:44:09.929Z,1.70
2022-12-08T03:46:37.714Z,1.35
2022-12-08T03:49:05.382Z,1.07
2022-12-08T03:51:33.033Z,1.38
2022-12-08T03:54:00.695Z,2.91
2022-12-08T03:56:31.893Z,4.17
2022-12-08T03:59:00.444Z,5.03
2022-12-08T04:01:28.488Z,5.30
2022-12-08T04:03:56.656Z,5.51
2022-12-08T04:06:24.306Z,5.94
2022-12-08T04:08:52.605Z,7.07
2022-12-08T04:11:20.565Z,6.77
2022-12-08T04:13:48.656Z,5.39
2022-12-08T04:16:19.906Z,4.24
2022-12-08T04:18:47.820Z,3.37
2022-12-08T04:21:15.883Z,2.72
2022-12-08T04:23:43.962Z,2.19
2022-12-08T04:26:12.509Z,1.79
2022-12-08T04:28:40.164Z,1.45
2022-12-08T04:31:07.886Z,1.73
2022-12-08T04:33:35.737Z,3.18
2022-12-08T04:36:05.318Z,4.07
2022-12-08T04:38:33.185Z,4.52
2022-12-08T04:41:01.682Z,4.96
2022-12-08T04:43:29.536Z,6.48
2022-12-08T04:45:57.230Z,7.80
2022-12-08T04:48:26.229Z,6.79
2022-12-08T04:50:53.933Z,5.39
2022-12-08T04:53:21.727Z,4.33
2022-12-08T04:55:49.797Z,3.58
2022-12-08T04:58:19.712Z,3.00
2022-12-08T05:00:47.868Z,2.53
2022-12-08T05:03:16.274Z,2.14
2022-12-08T05:05:44.743Z,1.84
2022-12-08T05:08:12.723Z,1.59
2022-12-08T05:10:40.530Z,1.76
2022-12-08T05:13:08.234Z,2.94
2022-12-08T05:15:35.957Z,4.69
2022-12-08T05:18:06.336Z,5.75
2022-12-08T05:20:34.475Z,5.97
2022-12-08T05:23:02.131Z,5.24
2022-12-08T05:25:29.884Z,4.12
2022-12-08T05:28:17.551Z,3.30
2022-12-08T05:30:45.176Z,2.65
2022-12-08T05:33:12.997Z,2.24
2022-12-08T05:35:40.819Z,1.88
2022-12-08T05:38:09.451Z,1.60
2022-12-08T05:40:39.157Z,1.95
2022-12-08T05:43:07.448Z,4.77
2022-12-08T05:45:35.146Z,6.70
2022-12-08T05:48:02.999Z,7.13
2022-12-08T05:50:30.842Z,5.86
2022-12-08T05:52:58.493Z,4.53
2022-12-08T05:55:26.144Z,3.54
2022-12-08T05:57:53.812Z,2.81
2022-12-08T06:00:21.925Z,2.25
2022-12-08T06:02:49.687Z,1.81
2022-12-08T06:05:17.450Z,1.46
2022-12-08T06:07:45.131Z,2.01
2022-12-08T06:10:12.898Z,5.07
2022-12-08T06:12:40.746Z,6.89
2022-12-08T06:15:08.816Z,6.90
2022-12-08T06:17:36.521Z,5.48
2022-12-08T06:20:05.246Z,4.20
2022-12-08T06:22:33.061Z,3.29
2022-12-08T06:25:00.732Z,2.65
2022-12-08T06:27:28.505Z,2.15
2022-12-08T06:29:56.258Z,1.75
2022-12-08T06:32:27.407Z,1.43
2022-12-08T06:34:55.497Z,1.12
2022-12-08T06:37:23.152Z,0.88
2022-12-08T06:39:51.785Z,1.48
2022-12-08T06:42:38.081Z,3.89
2022-12-08T06:45:06.798Z,6.34
2022-12-08T06:47:34.913Z,7.28
2022-12-08T06:50:03.076Z,6.31
2022-12-08T06:52:31.215Z,4.87
2022-12-08T06:54:58.932Z,3.82
2022-12-08T06:57:26.664Z,3.08
2022-12-08T06:59:54.346Z,2.55
2022-12-08T07:02:22.142Z,2.12
2022-12-08T07:04:51.314Z,1.76
2022-12-08T07:07:18.937Z,1.45
2022-12-08T07:09:46.634Z,1.14
2022-12-08T07:12:14.501Z,1.36
2022-12-08T07:14:42.148Z,4.18
2022-12-08T07:17:09.854Z,6.72
2022-12-08T07:19:37.600Z,7.59
2022-12-08T07:22:05.237Z,6.20
2022-12-08T07:24:33.319Z,4.69
2022-12-08T07:27:00.990Z,3.60
2022-12-08T07:29:28.785Z,2.83
2022-12-08T07:31:56.444Z,2.24
2022-12-08T07:34:24.205Z,1.79
2022-12-08T07:36:51.820Z,1.42
2022-12-08T07:39:19.511Z,1.12
2022-12-08T07:41:47.184Z,0.90
2022-12-08T07:44:14.960Z,0.74
2022-12-08T07:46:42.689Z,1.23
2022-12-08T07:49:10.405Z,3.36
2022-12-08T07:51:38.130Z,4.72
2022-12-08T07:54:05.869Z,5.26
2022-12-08T07:56:33.596Z,5.86
2022-12-08T07:59:02.869Z,6.48
2022-12-08T08:01:32.990Z,5.88
2022-12-08T08:04:04.476Z,5.01
2022-12-08T08:06:33.678Z,4.54
2022-12-08T08:09:01.345Z,4.37
2022-12-08T08:11:29.143Z,4.39
2022-12-08T08:13:57.914Z,4.49
2022-12-08T08:16:25.847Z,4.63
2022-12-08T08:18:54.157Z,4.81
2022-12-08T08:21:45.123Z,5.03
2022-12-08T08:24:09.996Z,5.28
2022-12-08T08:26:37.866Z,5.42
2022-12-08T08:29:05.560Z,5.56
2022-12-08T08:31:33.296Z,5.68
2022-12-08T08:34:05.953Z,5.84
2022-12-08T08:36:34.034Z,5.89
2022-12-08T08:39:02.111Z,5.85
2022-12-08T08:41:29.938Z,5.93
2022-12-08T08:43:57.649Z,6.00
2022-12-08T08:46:25.338Z,6.07
2022-12-08T08:48:53.070Z,6.46
2022-12-08T08:51:21.169Z,7.76
2022-12-08T08:53:48.923Z,9.09
2022-12-08T08:56:22.381Z,9.97
2022-12-08T08:58:51.587Z,9.38
2022-12-08T09:01:30.190Z,8.73
2022-12-08T09:03:58.228Z,8.27
2022-12-08T09:06:28.115Z,7.93
2022-12-08T09:08:56.342Z,7.69
2022-12-08T09:11:24.252Z,7.52
2022-12-08T09:13:53.464Z,7.32
2022-12-08T09:16:21.884Z,7.12
2022-12-08T09:18:50.320Z,6.85
2022-12-08T09:21:22.959Z,6.52
2022-12-08T09:23:52.788Z,6.19
2022-12-08T09:26:24.013Z,5.84
2022-12-08T09:28:53.185Z,5.51
2022-12-08T09:31:22.174Z,5.19
2022-12-08T09:33:52.988Z,5.22
2022-12-08T09:36:21.136Z,7.59
2022-12-08T09:38:50.275Z,9.51
2022-12-08T09:41:22.640Z,9.43
2022-12-08T09:44:21.364Z,8.04
2022-12-08T09:46:52.311Z,6.66
2022-12-08T09:49:28.199Z,5.85
2022-12-08T09:51:56.070Z,5.20
2022-12-08T09:54:34.343Z,4.77
2022-12-08T09:57:11.992Z,4.45
2022-12-08T09:59:41.363Z,4.17
2022-12-08T10:02:26.547Z,4.68
2022-12-08T10:04:56.426Z,6.57
2022-12-08T10:07:43.617Z,7.91
2022-12-08T10:10:33.329Z,9.45
2022-12-08T10:13:26.234Z,8.52
2022-12-08T10:16:29.873Z,6.91
2022-12-08T10:19:10.910Z,5.69
2022-12-08T10:21:40.639Z,4.95
2022-12-08T10:24:13.603Z,4.42
2022-12-08T10:26:41.279Z,3.94
2022-12-08T10:29:13.611Z,3.56
2022-12-08T10:31:42.263Z,3.88
2022-12-08T10:34:19.015Z,5.61
2022-12-08T10:36:58.242Z,7.20
2022-12-08T10:39:31.255Z,8.55
2022-12-08T10:42:22.571Z,10.11
2022-12-08T10:45:08.712Z,10.21
2022-12-08T10:47:41.559Z,8.48
2022-12-08T10:50:15.351Z,7.19
2022-12-08T10:52:43.023Z,6.38
2022-12-08T10:55:17.020Z,5.92
2022-12-08T10:57:45.493Z,5.53
2022-12-08T11:00:18.800Z,5.21
2022-12-08T11:02:57.351Z,5.56
2022-12-08T11:05:29.398Z,6.88
2022-12-08T11:07:57.787Z,7.33
2022-12-08T11:10:43.349Z,7.81
2022-12-08T11:13:22.716Z,8.04
2022-12-08T11:15:51.231Z,7.89
2022-12-08T11:18:22.896Z,6.83
2022-12-08T11:20:59.262Z,5.92
2022-12-08T11:23:29.109Z,5.16
2022-12-08T11:26:04.748Z,4.59
2022-12-08T11:28:32.455Z,5.15
2022-12-08T11:31:06.983Z,7.53
2022-12-08T11:33:34.854Z,8.28
2022-12-08T11:36:08.987Z,8.53
2022-12-08T11:38:42.293Z,8.03
2022-12-08T11:41:18.949Z,6.75
2022-12-08T11:43:58.783Z,5.66
2022-12-08T11:46:51.224Z,4.83
2022-12-08T11:49:20.605Z,4.21
2022-12-08T11:51:54.747Z,4.33
2022-12-08T11:54:34.653Z,5.54
2022-12-08T11:57:05.900Z,6.11
2022-12-08T11:59:41.886Z,6.32
2022-12-08T12:02:14.438Z,6.37
2022-12-08T12:04:49.336Z,6.34
2022-12-08T12:07:39.551Z,7.42
2022-12-08T12:10:35.120Z,8.80
2022-12-08T12:13:40.455Z,8.62
2022-12-08T12:16:21.547Z,7.15
2022-12-08T12:19:16.994Z,5.95
2022-12-08T12:21:50.563Z,5.05
2022-12-08T12:24:27.501Z,4.50
2022-12-08T12:27:08.038Z,4.97
2022-12-08T12:29:38.453Z,8.08
2022-12-08T12:32:10.122Z,9.46
2022-12-08T12:34:48.921Z,9.42
2022-12-08T12:37:21.519Z,7.90
2022-12-08T12:40:03.645Z,6.59
2022-12-08T12:42:40.363Z,5.57
2022-12-08T12:45:17.096Z,4.87
2022-12-08T12:47:56.181Z,4.39
2022-12-08T12:50:33.995Z,5.10
2022-12-08T12:53:10.660Z,8.02
2022-12-08T12:55:55.453Z,9.27
2022-12-08T12:58:29.350Z,9.35
2022-12-08T13:01:15.124Z,8.34
2022-12-08T13:03:47.376Z,6.94
2022-12-08T13:06:23.009Z,5.98
2022-12-08T13:08:53.185Z,5.26
2022-12-08T13:11:21.783Z,4.75
2022-12-08T13:14:04.578Z,5.03
2022-12-08T13:16:37.366Z,7.90
2022-12-08T13:19:12.812Z,9.61
2022-12-08T13:21:40.904Z,9.35
2022-12-08T13:24:17.264Z,7.98
2022-12-08T13:26:49.399Z,6.78
2022-12-08T13:29:25.686Z,5.97
2022-12-08T13:32:00.930Z,5.36
2022-12-08T13:34:45.273Z,4.85
2022-12-08T13:37:15.799Z,5.06
2022-12-08T13:39:51.022Z,7.18
2022-12-08T13:42:27.451Z,9.17
2022-12-08T13:45:48.575Z,10.35
2022-12-08T13:48:30.138Z,9.18
2022-12-08T13:57:35.863Z,5.18
2022-12-08T14:00:15.201Z,4.59
2022-12-08T14:02:48.347Z,4.14
2022-12-08T14:05:23.790Z,4.83
2022-12-08T14:07:57.752Z,7.68
2022-12-08T14:10:28.271Z,9.53
2022-12-08T14:13:00.574Z,10.15
2022-12-08T14:15:32.696Z,8.67
2022-12-08T14:18:05.927Z,7.16
2022-12-08T14:20:57.744Z,6.07
2022-12-08T14:23:23.296Z,5.21
2022-12-08T14:25:50.945Z,4.63
2022-12-08T14:28:18.680Z,4.67
2022-12-08T14:30:49.556Z,5.81
2022-12-08T14:33:17.501Z,6.17
2022-12-08T14:35:51.484Z,6.20
2022-12-08T14:38:21.769Z,6.19
2022-12-08T14:41:07.184Z,6.19
2022-12-08T14:43:34.991Z,6.18
2022-12-08T14:46:06.504Z,6.08
2022-12-08T14:48:34.160Z,6.06
2022-12-08T14:51:04.729Z,6.06
2022-12-08T14:53:40.721Z,6.14
2022-12-08T14:56:24.556Z,6.58
2022-12-08T14:59:04.241Z,7.29
2022-12-08T15:01:33.000Z,7.75
2022-12-08T15:04:28.556Z,7.84
2022-12-08T15:07:20.005Z,7.92
2022-12-08T15:09:50.142Z,7.84
2022-12-08T15:12:27.125Z,7.02
2022-12-08T15:14:56.973Z,5.92
2022-12-08T15:17:39.919Z,5.11
2022-12-08T15:20:33.221Z,4.47
2022-12-08T15:23:02.688Z,4.73
2022-12-08T15:25:30.443Z,5.37
2022-12-08T15:27:58.214Z,6.00
2022-12-08T15:30:29.731Z,6.43
2022-12-08T15:32:57.414Z,6.44
2022-12-08T15:35:25.071Z,6.41
2022-12-08T15:37:52.891Z,6.46
2022-12-08T15:40:22.973Z,6.35
2022-12-08T15:42:50.721Z,6.18
2022-12-08T15:45:18.991Z,6.08
2022-12-08T15:47:46.645Z,6.16
2022-12-08T15:50:16.729Z,6.40
2022-12-08T15:52:44.500Z,6.59
2022-12-08T15:55:19.612Z,6.69
2022-12-08T15:58:45.052Z,6.57
2022-12-08T16:00:55.653Z,6.57
2022-12-08T16:04:13.854Z,6.64
2022-12-08T16:09:13.740Z,6.60
2022-12-08T16:12:07.110Z,6.56
2022-12-08T16:17:25.684Z,6.59
2022-12-08T16:19:53.997Z,6.51
2022-12-08T16:22:52.901Z,6.49
2022-12-08T16:25:20.419Z,6.34
2022-12-08T16:28:01.215Z,6.29
2022-12-08T16:30:31.203Z,6.35
2022-12-08T16:32:58.865Z,6.30
2022-12-08T16:35:26.574Z,6.56
2022-12-08T16:37:54.256Z,6.80
2022-12-08T16:40:22.657Z,6.59
2022-12-08T16:42:50.559Z,6.92
2022-12-08T16:45:25.755Z,7.23
2022-12-08T16:47:56.022Z,7.52
2022-12-08T16:50:32.146Z,7.92
2022-12-08T16:53:02.454Z,8.18
2022-12-08T16:55:30.403Z,7.84
2022-12-08T16:57:58.637Z,6.81
2022-12-08T17:00:28.911Z,5.91
2022-12-08T17:02:58.550Z,5.24
2022-12-08T17:05:26.881Z,4.75
2022-12-08T17:07:55.405Z,4.38
2022-12-08T17:10:26.078Z,4.07
2022-12-08T17:12:54.642Z,4.24
2022-12-08T17:15:25.566Z,5.63
2022-12-08T17:17:53.710Z,6.96
2022-12-08T17:20:24.771Z,9.11
2022-12-08T17:22:58.257Z,10.28
2022-12-08T17:25:26.926Z,9.24
2022-12-08T17:27:56.245Z,7.74
2022-12-08T17:30:24.003Z,6.65
2022-12-08T17:32:52.844Z,5.90
2022-12-08T17:35:20.645Z,5.35
2022-12-08T17:37:48.378Z,4.93
2022-12-08T17:40:16.644Z,4.56
2022-12-08T17:42:44.661Z,4.23
2022-12-08T17:45:12.378Z,3.96
2022-12-08T17:47:39.986Z,4.00
2022-12-08T17:50:08.722Z,6.19
2022-12-08T17:52:36.705Z,8.09
2022-12-08T17:55:04.764Z,9.55
2022-12-08T18:00:36.151Z,7.78
2022-12-08T18:03:02.680Z,6.57
2022-12-08T18:05:30.469Z,5.70
2022-12-08T18:07:57.500Z,5.08
2022-12-08T18:10:23.850Z,4.58
2022-12-08T18:12:50.321Z,4.19
2022-12-08T18:15:18.678Z,3.88
2022-12-08T18:17:45.293Z,3.62
2022-12-08T18:20:12.651Z,4.14
2022-12-08T18:22:40.366Z,6.10
2022-12-08T18:25:07.372Z,7.72
2022-12-08T18:27:37.418Z,8.54
2022-12-08T18:30:11.532Z,8.10
2022-12-08T18:32:37.859Z,6.91
2022-12-08T18:35:04.448Z,5.94
2022-12-08T18:37:30.715Z,5.23
2022-12-08T18:39:57.115Z,4.67
2022-12-08T18:42:23.425Z,4.20
2022-12-08T18:45:06.037Z,3.80
2022-12-08T18:47:34.728Z,3.53
2022-12-08T18:50:01.396Z,4.64
2022-12-08T18:52:32.173Z,5.56
2022-12-08T18:55:07.658Z,5.86
2022-12-08T18:57:37.910Z,5.92
2022-12-08T19:00:09.857Z,6.02
2022-12-08T19:02:38.170Z,6.08
2022-12-08T19:05:06.093Z,6.06
2022-12-08T19:07:32.383Z,6.03
2022-12-08T19:10:00.540Z,6.05
2022-12-08T19:12:27.571Z,6.05
2022-12-08T19:14:54.030Z,6.14
2022-12-08T19:17:20.486Z,6.28
2022-12-08T19:19:46.953Z,6.29
2022-12-08T19:22:13.417Z,6.37
2022-12-08T19:24:39.685Z,6.44
2022-12-08T19:27:06.128Z,6.40
2022-12-08T19:29:32.389Z,6.30
2022-12-08T19:31:59.615Z,6.26
2022-12-08T19:34:26.069Z,6.23
2022-12-08T19:36:52.475Z,6.05
2022-12-08T19:39:41.144Z,5.90
2022-12-08T19:49:03.341Z,5.49
2022-12-08T19:51:31.069Z,4.72
2022-12-08T19:53:58.759Z,4.01
2022-12-08T19:56:26.575Z,3.48
2022-12-08T19:58:54.267Z,3.53
2022-12-08T20:01:21.989Z,4.42
2022-12-08T20:03:49.666Z,5.09
2022-12-08T20:06:18.173Z,5.60
2022-12-08T20:08:50.432Z,6.00
2022-12-08T20:11:18.484Z,6.56
2022-12-08T20:13:47.661Z,6.61
2022-12-08T20:16:16.365Z,6.56
2022-12-08T20:18:44.359Z,6.88
2022-12-08T20:21:12.473Z,7.20
2022-12-08T20:23:40.335Z,7.38
2022-12-08T20:26:09.953Z,6.62
2022-12-08T20:28:38.116Z,5.56
2022-12-08T20:31:06.147Z,4.70
2022-12-08T20:33:33.995Z,4.04
2022-12-08T20:36:04.600Z,3.53
2022-12-08T20:38:32.287Z,3.10
2022-12-08T20:41:00.035Z,3.29
2022-12-08T20:43:27.728Z,4.68
2022-12-08T20:45:55.407Z,5.45
2022-12-08T20:48:23.061Z,6.24
2022-12-08T20:50:52.065Z,7.22
2022-12-08T20:53:19.767Z,7.29
2022-12-08T20:55:47.518Z,7.17
2022-12-08T20:58:15.373Z,7.26
2022-12-08T21:00:43.491Z,7.49
2022-12-08T21:03:12.755Z,7.58
2022-12-08T21:05:41.188Z,6.62
2022-12-08T21:08:08.946Z,5.42
2022-12-08T21:10:42.194Z,4.51
2022-12-08T21:13:11.900Z,3.83
2022-12-08T21:15:39.681Z,3.97
2022-12-08T21:18:07.458Z,5.26
2022-12-08T21:20:35.267Z,6.19
2022-12-08T21:23:02.946Z,7.68
2022-12-08T21:25:30.898Z,8.35
2022-12-08T21:27:58.917Z,7.32
2022-12-08T21:30:26.921Z,5.92
2022-12-08T21:32:54.694Z,4.88
2022-12-08T21:35:22.496Z,4.12
2022-12-08T21:37:50.202Z,3.49
2022-12-08T21:40:18.303Z,3.67
2022-12-08T21:42:46.256Z,6.04
2022-12-08T21:45:16.728Z,8.11
2022-12-08T21:47:46.367Z,9.04
2022-12-08T21:50:14.982Z,7.88
2022-12-08T21:52:45.335Z,6.25
2022-12-08T21:55:14.688Z,5.06
2022-12-08T21:57:43.169Z,4.20
2022-12-08T22:00:15.355Z,3.56
2022-12-08T22:02:43.797Z,3.02
2022-12-08T22:05:11.625Z,3.33
2022-12-08T22:07:40.874Z,5.86
2022-12-08T22:10:10.642Z,7.80
2022-12-08T22:12:38.875Z,8.47
2022-12-08T22:15:08.728Z,7.23
2022-12-08T22:17:41.765Z,5.75
2022-12-08T22:20:12.869Z,4.66
2022-12-08T22:22:40.886Z,3.87
2022-12-08T22:25:11.957Z,3.31
2022-12-08T22:27:40.669Z,2.84
2022-12-08T22:30:09.670Z,2.96
2022-12-08T22:32:37.884Z,4.73
2022-12-08T22:35:05.983Z,5.39
2022-12-08T22:37:33.910Z,5.51
2022-12-08T22:40:01.747Z,5.50
2022-12-08T22:42:29.947Z,5.49
2022-12-08T22:44:57.726Z,5.57
2022-12-08T22:47:25.657Z,5.90
2022-12-08T22:49:53.481Z,6.32
2022-12-08T22:52:21.259Z,6.44
2022-12-08T22:54:49.168Z,6.48
2022-12-08T22:57:17.016Z,6.41
2022-12-08T22:59:44.788Z,5.41
2022-12-08T23:02:12.609Z,4.38
2022-12-08T23:04:40.518Z,3.57
2022-12-08T23:07:08.364Z,2.96
2022-12-08T23:09:36.017Z,2.51
2022-12-08T23:12:04.780Z,2.56
2022-12-08T23:14:32.443Z,3.42
2022-12-08T23:17:00.313Z,4.27
2022-12-08T23:19:28.305Z,4.62
2022-12-08T23:21:56.179Z,4.92
2022-12-08T23:24:24.091Z,5.16
2022-12-08T23:26:51.920Z,5.39
2022-12-08T23:29:19.668Z,5.53
2022-12-08T23:31:47.517Z,5.60
2022-12-08T23:34:15.400Z,5.69
2022-12-08T23:36:43.329Z,5.79
2022-12-08T23:39:11.795Z,5.88
2022-12-08T23:41:39.705Z,5.93
2022-12-08T23:44:09.115Z,5.97
2022-12-08T23:46:36.979Z,5.99
2022-12-08T23:49:04.903Z,5.95
2022-12-08T23:51:32.831Z,5.97
2022-12-08T23:54:00.794Z,6.04
2022-12-08T23:56:30.523Z,6.02
2022-12-08T23:59:00.630Z,6.00
